Time;durP1;ratioP1;P1;durP2;ratioP2;P2;SDS_P1;SDS_P2;PMS_P1;PMS_P2;Temp;Humidity;BMP_temperature;BMP_pressure;BME280_temperature;BME280_humidity;BME280_pressure;Samples;Min_cycle;Max_cycle;Signal;HPM_P1;HPM_P2
2021/12/08 00:04:15;;;;;;;25.80;10.83;;;;;;;-3.48;100.00;100802.50;10500367;28;20311;-65
2021/12/08 00:09:27;;;;;;;51.73;25.80;;;;;;;-3.57;100.00;100791.09;10500310;28;20254;-70
2021/12/08 00:14:30;;;;;;;23.10;10.47;;;;;;;-3.59;100.00;100787.59;10500279;28;20650;-66
2021/12/08 00:19:35;;;;;;;26.80;10.50;;;;;;;-3.63;100.00;100787.38;10500189;28;20231;-65
2021/12/08 00:24:38;;;;;;;22.93;10.50;;;;;;;-3.60;100.00;100790.06;10500129;28;20219;-64
2021/12/08 00:29:41;;;;;;;24.30;9.87;;;;;;;-3.74;100.00;100798.59;10499900;28;20214;-65
2021/12/08 00:34:46;;;;;;;23.83;9.77;;;;;;;-3.80;100.00;100806.78;10499708;28;20528;-65
2021/12/08 00:39:50;;;;;;;20.97;9.37;;;;;;;-3.73;100.00;100815.56;10499744;28;20220;-67
2021/12/08 00:44:53;;;;;;;25.67;10.87;;;;;;;-3.74;100.00;100822.31;10503804;28;20192;-65
2021/12/08 00:49:58;;;;;;;26.40;12.00;;;;;;;-3.74;100.00;100824.84;10507374;28;20196;-66
2021/12/08 00:55:05;;;;;;;26.83;11.53;;;;;;;-3.74;100.00;100816.34;10507257;28;20269;-65
2021/12/08 01:00:12;;;;;;;29.07;13.30;;;;;;;-3.71;100.00;100819.06;10506619;28;20231;-66
2021/12/08 01:05:26;;;;;;;28.80;13.67;;;;;;;-3.79;100.00;100815.22;10506791;28;20279;-65
2021/12/08 01:10:30;;;;;;;23.77;12.17;;;;;;;-3.69;100.00;100802.25;10506456;28;20277;-68
2021/12/08 01:15:40;;;;;;;29.37;13.47;;;;;;;-3.75;100.00;100797.75;10504832;28;20208;-65
2021/12/08 01:20:47;;;;;;;32.57;12.73;;;;;;;-3.71;100.00;100803.84;10502051;28;20226;-66
2021/12/08 01:25:53;;;;;;;28.27;12.27;;;;;;;-3.70;100.00;100793.78;10501815;28;20563;-64
2021/12/08 01:30:59;;;;;;;33.57;14.63;;;;;;;-3.74;100.00;100785.94;10184346;27;10000029;-65
2021/12/08 01:36:06;;;;;;;30.50;15.50;;;;;;;-3.69;100.00;100789.56;10543052;28;20172;-65
2021/12/08 01:41:10;;;;;;;29.80;13.50;;;;;;;-3.78;100.00;100781.50;10542800;28;20219;-65
2021/12/08 01:46:15;;;;;;;29.90;13.40;;;;;;;-3.68;100.00;100786.25;10542742;28;20198;-67
2021/12/08 01:51:20;;;;;;;28.43;13.03;;;;;;;-3.59;100.00;100786.75;10542470;28;20282;-65
2021/12/08 01:56:25;;;;;;;30.17;13.77;;;;;;;-3.71;100.00;100781.88;10541886;28;20224;-67
2021/12/08 02:01:31;;;;;;;29.00;12.97;;;;;;;-3.77;100.00;100766.38;10541983;28;20226;-67
2021/12/08 02:06:39;;;;;;;31.13;13.33;;;;;;;-3.80;100.00;100757.72;10541891;28;20707;-66
2021/12/08 02:11:45;;;;;;;27.93;12.30;;;;;;;-3.73;100.00;100747.13;10542595;28;20266;-65
2021/12/08 02:16:50;;;;;;;28.83;13.47;;;;;;;-3.72;100.00;100744.66;10546081;28;20192;-67
2021/12/08 02:21:55;;;;;;;26.63;12.50;;;;;;;-3.66;100.00;100739.06;10545718;28;20223;-63
2021/12/08 02:26:58;;;;;;;27.10;12.27;;;;;;;-3.74;100.00;100733.56;10545487;28;20192;-72
2021/12/08 02:32:08;;;;;;;23.63;10.40;;;;;;;-3.81;100.00;100733.16;10545372;28;20660;-69
2021/12/08 02:47:55;;;;;;;20.60;11.03;;;;;;;-3.88;100.00;100739.56;10544511;28;20229;-67
2021/12/08 02:53:01;;;;;;;25.00;11.10;;;;;;;-3.94;100.00;100735.84;10544340;28;20211;-66
2021/12/08 02:58:05;;;;;;;22.60;9.37;;;;;;;-3.88;100.00;100726.91;10543927;28;20245;-64
2021/12/08 03:03:09;;;;;;;24.37;11.37;;;;;;;-3.91;100.00;100736.00;10544204;28;20220;-65
2021/12/08 03:08:14;;;;;;;24.33;11.10;;;;;;;-3.96;100.00;100734.91;10543355;28;20518;-66
2021/12/08 03:13:30;;;;;;;21.17;9.77;;;;;;;-3.83;100.00;100730.53;10543437;28;20222;-64
2021/12/08 03:18:35;;;;;;;19.37;9.67;;;;;;;-3.78;100.00;100740.94;10543500;28;20245;-69
2021/12/08 03:23:50;;;;;;;20.57;9.90;;;;;;;-3.84;100.00;100740.59;10543877;28;20221;-66
2021/12/08 03:29:00;;;;;;;23.27;10.33;;;;;;;-3.88;100.00;100738.69;10543253;28;20241;-68
2021/12/08 03:34:04;;;;;;;19.27;9.17;;;;;;;-3.93;100.00;100747.72;10542821;28;20556;-65
2021/12/08 03:39:08;;;;;;;16.57;9.27;;;;;;;-3.97;100.00;100745.84;10542674;28;20253;-68
2021/12/08 03:44:12;;;;;;;18.10;8.03;;;;;;;-4.07;100.00;100738.53;10542653;28;20222;-68
2021/12/08 03:49:17;;;;;;;18.60;9.77;;;;;;;-4.06;100.00;100732.66;10542800;28;20215;-69
2021/12/08 03:54:22;;;;;;;21.20;9.00;;;;;;;-3.88;100.00;100728.56;10542387;28;20305;-70
2021/12/08 03:59:25;;;;;;;19.47;9.10;;;;;;;-3.96;100.00;100717.16;10542102;28;20227;-69
2021/12/08 04:04:30;;;;;;;17.10;8.93;;;;;;;-4.05;100.00;100714.13;10542305;28;20347;-68
2021/12/08 04:09:39;;;;;;;20.63;8.77;;;;;;;-4.09;100.00;100715.63;10542234;28;20233;-71
2021/12/08 04:14:46;;;;;;;18.10;8.60;;;;;;;-4.07;100.00;100724.19;10542366;28;20228;-68
2021/12/08 04:19:50;;;;;;;17.80;8.97;;;;;;;-4.15;100.00;100709.38;10546282;28;20245;-68
2021/12/08 04:24:55;;;;;;;19.43;9.00;;;;;;;-4.11;100.00;100713.81;10550440;28;20225;-69
2021/12/08 04:29:59;;;;;;;20.03;9.37;;;;;;;-4.14;100.00;100708.59;10550310;28;20219;-68
2021/12/08 04:35:10;;;;;;;22.17;11.07;;;;;;;-4.19;100.00;100692.25;10550083;28;20294;-67
2021/12/08 04:40:27;;;;;;;21.23;9.87;;;;;;;-4.00;100.00;100694.97;10549562;28;20226;-69
2021/12/08 04:45:43;;;;;;;19.97;9.17;;;;;;;-4.09;100.00;100692.81;10549713;28;20292;-67
2021/12/08 04:51:12;;;;;;;27.73;12.67;;;;;;;-4.12;100.00;100705.34;10549696;28;20227;-68
2021/12/08 05:01:58;;;;;;;22.87;10.17;;;;;;;-4.18;100.00;100697.44;10548850;28;20219;-69
2021/12/08 05:07:18;;;;;;;26.53;10.43;;;;;;;-4.28;100.00;100705.28;10548641;28;20664;-71
2021/12/08 05:12:30;;;;;;;19.37;9.70;;;;;;;-4.31;100.00;100709.31;10548531;28;20231;-71
2021/12/08 05:17:37;;;;;;;22.80;9.53;;;;;;;-4.35;100.00;100703.25;10548756;28;20536;-68
2021/12/08 05:22:49;;;;;;;20.27;10.13;;;;;;;-4.42;100.00;100675.84;10548130;28;20227;-66
2021/12/08 05:27:57;;;;;;;18.70;9.83;;;;;;;-4.18;100.00;100683.88;10547747;28;20230;-67
2021/12/08 05:33:02;;;;;;;20.17;10.10;;;;;;;-4.24;100.00;100694.56;10547191;28;20226;-66
2021/12/08 05:38:05;;;;;;;22.63;10.23;;;;;;;-4.36;100.00;100693.00;10547495;28;20226;-67
2021/12/08 05:43:11;;;;;;;19.50;9.20;;;;;;;-4.22;100.00;100708.19;10547072;28;20637;-68
2021/12/08 05:48:14;;;;;;;20.70;9.87;;;;;;;-4.43;100.00;100712.06;10547121;28;20547;-68
2021/12/08 05:53:18;;;;;;;20.17;10.40;;;;;;;-4.39;100.00;100718.19;10546871;28;20230;-66
2021/12/08 05:58:25;;;;;;;19.93;8.90;;;;;;;-4.46;100.00;100706.84;10546496;28;20234;-64
2021/12/08 06:03:29;;;;;;;17.20;7.90;;;;;;;-4.48;100.00;100713.50;10546448;28;20630;-67
2021/12/08 06:08:33;;;;;;;16.97;8.50;;;;;;;-4.63;100.00;100692.41;10545887;28;20226;-68
2021/12/08 06:13:39;;;;;;;16.33;8.17;;;;;;;-4.79;100.00;100695.75;10545653;28;20216;-68
2021/12/08 06:18:44;;;;;;;18.77;7.23;;;;;;;-4.63;100.00;100694.94;10545843;28;20224;-65
2021/12/08 06:23:48;;;;;;;15.57;7.37;;;;;;;-4.57;100.00;100696.94;10545633;28;20221;-65
2021/12/08 06:28:54;;;;;;;14.40;7.07;;;;;;;-4.56;100.00;100702.09;10545123;28;20226;-67
2021/12/08 06:33:58;;;;;;;15.67;7.03;;;;;;;-4.80;100.00;100705.78;10545146;28;20230;-67
2021/12/08 06:39:05;;;;;;;15.70;7.77;;;;;;;-4.82;100.00;100704.81;10544559;28;20695;-66
2021/12/08 06:44:12;;;;;;;18.13;7.87;;;;;;;-4.66;100.00;100722.63;10543799;28;20222;-65
2021/12/08 06:49:17;;;;;;;17.77;6.80;;;;;;;-4.72;100.00;100717.19;10544458;28;20219;-69
2021/12/08 06:54:25;;;;;;;20.00;7.03;;;;;;;-4.65;100.00;100718.41;10544590;28;20231;-62
2021/12/08 06:59:35;;;;;;;18.50;6.90;;;;;;;-4.68;100.00;100725.03;10543599;28;20239;-66
2021/12/08 07:04:55;;;;;;;17.83;7.13;;;;;;;-4.63;100.00;100732.91;10543521;28;20234;-68
2021/12/08 07:10:02;;;;;;;15.97;7.13;;;;;;;-4.64;100.00;100741.28;10543689;28;20219;-65
2021/12/08 07:15:12;;;;;;;23.50;8.77;;;;;;;-4.57;100.00;100757.69;10540476;28;20215;-65
2021/12/08 07:20:33;;;;;;;21.60;8.17;;;;;;;-4.34;100.00;100777.56;10539297;28;20219;-66
2021/12/08 07:25:44;;;;;;;18.70;7.50;;;;;;;-4.39;100.00;100781.50;10129143;28;9999942;-63
2021/12/08 07:30:54;;;;;;;21.47;8.53;;;;;;;-4.57;100.00;100785.56;10496914;28;20212;-67
2021/12/08 07:36:04;;;;;;;20.40;7.67;;;;;;;-4.53;100.00;100774.78;10475965;28;20217;-64
2021/12/08 07:41:12;;;;;;;18.00;7.93;;;;;;;-4.37;100.00;100762.19;10454762;28;20224;-65
2021/12/08 07:46:19;;;;;;;25.57;10.20;;;;;;;-4.45;100.00;100755.84;10454686;28;20320;-66
2021/12/08 07:51:30;;;;;;;19.03;7.87;;;;;;;-4.42;100.00;100743.34;10454513;28;20693;-64
2021/12/08 07:56:37;;;;;;;17.07;9.00;;;;;;;-4.50;100.00;100739.53;10454490;28;20237;-64
2021/12/08 08:02:08;;;;;;;;;;;;;;;;;;;;;
2021/12/08 08:19:44;;;;;;;18.70;8.87;;;;;;;-4.17;100.00;100759.06;10016662;28;10001900;-68
2021/12/08 08:25:04;;;;;;;19.30;8.00;;;;;;;-4.06;100.00;100732.66;10371834;28;20225;-68
2021/12/08 08:30:10;;;;;;;20.50;9.57;;;;;;;-4.08;100.00;100732.59;10370660;28;20230;-69
2021/12/08 08:35:18;;;;;;;28.30;11.13;;;;;;;-3.96;100.00;100732.34;10370256;28;20232;-65
2021/12/08 08:40:26;;;;;;;19.83;8.80;;;;;;;-3.85;100.00;100728.75;10025982;28;9999888;-65
2021/12/08 08:45:34;;;;;;;19.00;8.57;;;;;;;-3.64;100.00;100717.16;10372703;28;20254;-67
2021/12/08 08:50:42;;;;;;;18.77;9.07;;;;;;;-3.63;100.00;100717.25;10366210;28;20218;-66
2021/12/08 08:55:53;;;;;;;18.40;9.33;;;;;;;-3.71;100.00;100721.03;10372754;28;20214;-66
2021/12/08 09:01:01;;;;;;;21.70;10.00;;;;;;;-3.53;100.00;100709.31;10372540;28;20214;-65
2021/12/08 09:06:10;;;;;;;19.17;8.80;;;;;;;-3.41;100.00;100700.56;10376639;28;20608;-66
2021/12/08 09:11:17;;;;;;;25.00;9.20;;;;;;;-3.48;100.00;100683.28;10375987;28;20309;-66
2021/12/08 09:16:25;;;;;;;20.33;9.53;;;;;;;-3.50;100.00;100693.38;10394237;28;20734;-65
2021/12/08 09:21:35;;;;;;;20.87;9.33;;;;;;;-3.50;100.00;100678.16;10419938;28;20255;-66
2021/12/08 09:26:44;;;;;;;20.27;9.03;;;;;;;-3.46;100.00;100666.50;10420225;28;20259;-67
2021/12/08 09:31:53;;;;;;;25.37;10.37;;;;;;;-3.46;100.00;100672.44;10419415;28;20233;-67
2021/12/08 09:37:05;;;;;;;20.60;10.57;;;;;;;-3.35;100.00;100663.72;10419501;28;20754;-66
2021/12/08 09:42:11;;;;;;;23.70;10.57;;;;;;;-3.13;100.00;100660.56;10422134;28;20238;-64
2021/12/08 09:47:15;;;;;;;22.90;10.93;;;;;;;-3.15;100.00;100641.84;10422384;28;20244;-64
2021/12/08 09:52:20;;;;;;;21.87;10.43;;;;;;;-3.03;100.00;100627.19;10421775;28;20225;-66
2021/12/08 09:57:24;;;;;;;21.47;9.50;;;;;;;-3.12;100.00;100611.56;10421908;28;20508;-66
2021/12/08 10:02:32;;;;;;;24.07;10.20;;;;;;;-3.00;100.00;100602.00;10421579;28;20520;-66
2021/12/08 10:07:42;;;;;;;24.83;11.50;;;;;;;-2.85;100.00;100608.66;10421977;28;20241;-64
2021/12/08 10:12:46;;;;;;;28.20;12.47;;;;;;;-2.77;100.00;100609.00;10420393;28;20225;-62
2021/12/08 10:17:50;;;;;;;30.73;12.90;;;;;;;-2.49;100.00;100612.00;10421220;28;20576;-67
2021/12/08 10:28:28;;;;;;;27.47;11.80;;;;;;;-2.30;100.00;100614.56;10536640;27;20562;-66
2021/12/08 10:34:01;;;;;;;26.13;10.87;;;;;;;-2.42;100.00;100616.56;10535108;28;20215;-65
2021/12/08 10:39:09;;;;;;;25.67;10.83;;;;;;;-2.48;100.00;100626.44;10540183;28;20238;-69
2021/12/08 10:44:13;;;;;;;29.80;13.23;;;;;;;-2.52;100.00;100625.41;10525948;28;20222;-66
2021/12/08 10:49:22;;;;;;;28.00;12.43;;;;;;;-2.59;100.00;100605.63;10532529;28;20314;-67
2021/12/08 10:54:30;;;;;;;29.23;12.33;;;;;;;-2.55;100.00;100581.22;10532625;28;20208;-65
2021/12/08 10:59:58;;;;;;;29.77;11.90;;;;;;;-2.37;100.00;100585.47;10531332;28;20770;-66
2021/12/08 11:05:02;;;;;;;30.37;12.07;;;;;;;-2.30;100.00;100586.63;10532323;28;20219;-65
2021/12/08 11:10:18;;;;;;;28.57;11.73;;;;;;;-2.43;100.00;100582.66;10531168;28;20233;-66
2021/12/08 11:15:24;;;;;;;27.83;13.00;;;;;;;-2.36;100.00;100569.41;10530532;28;20617;-66
2021/12/08 11:20:31;;;;;;;29.27;11.90;;;;;;;-2.38;100.00;100576.09;10518004;28;20209;-67
2021/12/08 11:25:39;;;;;;;21.63;10.57;;;;;;;-2.24;100.00;100564.00;10488888;28;20239;-65
2021/12/08 11:30:44;;;;;;;19.67;10.37;;;;;;;-2.21;100.00;100555.66;10489037;28;20224;-66
2021/12/08 11:35:47;;;;;;;29.87;11.53;;;;;;;-2.15;100.00;100536.44;10483245;28;20228;-65
2021/12/08 11:40:51;;;;;;;19.90;10.47;;;;;;;-2.13;100.00;100536.50;10504296;28;20277;-66
2021/12/08 11:46:10;;;;;;;27.80;12.60;;;;;;;-2.04;100.00;100530.16;10461109;28;20229;-66
2021/12/08 11:51:15;;;;;;;27.20;11.97;;;;;;;-1.87;100.00;100525.75;10460915;28;20212;-66
2021/12/08 11:56:38;;;;;;;25.90;11.93;;;;;;;-1.86;100.00;100527.50;10461049;28;20244;-65
2021/12/08 12:01:42;;;;;;;22.73;10.37;;;;;;;-1.79;100.00;100509.13;10460928;28;20224;-64
2021/12/08 12:06:46;;;;;;;22.07;10.53;;;;;;;-1.85;100.00;100509.78;10460417;28;20668;-64
2021/12/08 12:11:52;;;;;;;21.03;10.00;;;;;;;-1.72;100.00;100508.59;10460392;28;20217;-67
2021/12/08 12:16:57;;;;;;;25.40;11.90;;;;;;;-1.78;100.00;100503.25;10460355;28;20674;-66
2021/12/08 12:22:12;;;;;;;21.87;11.13;;;;;;;-1.65;100.00;100482.59;10460110;28;20213;-66
2021/12/08 12:27:25;;;;;;;22.67;10.57;;;;;;;-1.59;100.00;100485.41;10459426;28;20247;-65
2021/12/08 12:32:33;;;;;;;22.57;10.37;;;;;;;-1.44;100.00;100483.44;10459669;28;20658;-70
2021/12/08 12:37:38;;;;;;;26.80;11.83;;;;;;;-1.35;100.00;100489.75;10477075;28;20227;-69
2021/12/08 12:42:54;;;;;;;23.60;11.47;;;;;;;-1.47;100.00;100479.09;10497268;28;20355;-66
2021/12/08 12:48:16;;;;;;;28.73;11.90;;;;;;;-1.48;100.00;100471.41;10458412;28;20303;-68
2021/12/08 12:53:32;;;;;;;28.53;13.10;;;;;;;-1.50;100.00;100480.69;10458789;28;20220;-64
2021/12/08 12:58:41;;;;;;;21.00;11.50;;;;;;;-1.55;100.00;100488.09;10460645;28;20303;-66
2021/12/08 13:03:50;;;;;;;24.97;11.57;;;;;;;-1.51;100.00;100481.47;10460296;28;20550;-66
2021/12/08 13:08:54;;;;;;;25.97;11.37;;;;;;;-1.63;100.00;100480.97;10460786;28;20231;-68
2021/12/08 13:13:57;;;;;;;24.93;11.97;;;;;;;-1.57;100.00;100477.00;10460983;28;20666;-67
2021/12/08 13:19:04;;;;;;;25.40;11.33;;;;;;;-1.54;100.00;100478.81;10460974;28;20216;-68
2021/12/08 13:24:37;;;;;;;21.53;10.67;;;;;;;-1.58;100.00;100480.38;10460415;28;20689;-68
2021/12/08 13:29:46;;;;;;;25.93;10.87;;;;;;;-1.60;100.00;100471.78;10459817;28;20671;-64
2021/12/08 13:34:58;;;;;;;23.30;11.23;;;;;;;-1.51;100.00;100478.91;10457123;28;20298;-66
2021/12/08 13:40:07;;;;;;;24.73;11.80;;;;;;;-1.40;100.00;100470.03;10514821;28;20286;-66
2021/12/08 13:45:25;;;;;;;23.60;11.93;;;;;;;-1.41;100.00;100489.53;10464401;28;20674;-65
2021/12/08 13:50:36;;;;;;;21.17;10.00;;;;;;;-1.39;100.00;100502.31;10456571;28;20209;-68
2021/12/08 13:55:44;;;;;;;26.17;11.53;;;;;;;-1.55;100.00;100507.59;10456591;28;20338;-67
2021/12/08 14:00:49;;;;;;;23.80;11.07;;;;;;;-1.59;100.00;100503.19;10456043;28;20213;-65
2021/12/08 14:05:59;;;;;;;25.90;11.37;;;;;;;-1.73;100.00;100500.09;10456085;28;20224;-67
2021/12/08 14:11:06;;;;;;;22.77;11.63;;;;;;;-1.87;100.00;100501.22;10456300;28;20593;-66
2021/12/08 14:16:11;;;;;;;22.77;11.20;;;;;;;-1.92;100.00;100502.69;10455856;28;20216;-66
2021/12/08 14:21:17;;;;;;;22.30;10.50;;;;;;;-1.93;100.00;100488.22;10455742;28;20304;-66
2021/12/08 14:26:23;;;;;;;24.53;11.70;;;;;;;-1.95;100.00;100481.38;10455472;28;20233;-65
2021/12/08 14:31:30;;;;;;;30.20;11.90;;;;;;;-1.92;100.00;100478.94;10455334;28;20250;-66
2021/12/08 14:36:41;;;;;;;22.33;10.03;;;;;;;-1.90;100.00;100479.88;10455536;28;20624;-66
2021/12/08 14:41:45;;;;;;;20.23;9.77;;;;;;;-1.87;100.00;100472.38;10538594;28;20221;-67
2021/12/08 14:46:52;;;;;;;26.03;10.93;;;;;;;-1.98;100.00;100456.66;10455322;28;20231;-66
2021/12/08 14:52:02;;;;;;;25.77;11.23;;;;;;;-2.14;100.00;100474.63;10455260;28;20300;-66
2021/12/08 14:57:14;;;;;;;24.90;11.43;;;;;;;-2.21;100.00;100477.75;10496245;28;20261;-66
2021/12/08 15:02:24;;;;;;;22.80;10.70;;;;;;;-2.32;100.00;100476.41;10496041;28;20679;-68
2021/12/08 15:07:30;;;;;;;24.20;10.30;;;;;;;-2.40;100.00;100468.44;10496445;28;20223;-68
2021/12/08 15:12:35;;;;;;;25.80;11.23;;;;;;;-2.39;100.00;100477.81;10499294;28;20212;-65
2021/12/08 15:17:39;;;;;;;23.13;9.37;;;;;;;-2.57;100.00;100471.09;10503845;28;20224;-66
2021/12/08 15:22:46;;;;;;;22.57;10.37;;;;;;;-2.59;100.00;100470.16;10503307;28;20614;-66
2021/12/08 15:27:56;;;;;;;23.60;10.43;;;;;;;-2.65;100.00;100487.66;10503136;28;20564;-66
2021/12/08 15:33:04;;;;;;;23.83;9.70;;;;;;;-2.79;100.00;100486.16;10502833;28;20287;-65
2021/12/08 15:38:10;;;;;;;19.53;9.27;;;;;;;-2.80;100.00;100503.09;10516207;28;20246;-68
2021/12/08 15:43:15;;;;;;;21.17;9.83;;;;;;;-2.74;100.00;100510.09;10540282;28;20307;-67
2021/12/08 15:48:23;;;;;;;21.43;10.13;;;;;;;-2.78;100.00;100493.84;10503382;28;20236;-67
2021/12/08 15:53:30;;;;;;;19.40;8.70;;;;;;;-2.81;100.00;100487.75;10501957;28;20212;-67
2021/12/08 15:58:38;;;;;;;17.60;8.40;;;;;;;-2.75;100.00;100491.47;10502428;28;20232;-69
2021/12/08 16:03:45;;;;;;;22.40;9.83;;;;;;;-2.84;100.00;100496.13;10501813;28;20231;-67
2021/12/08 16:08:52;;;;;;;23.47;9.57;;;;;;;-2.93;100.00;100499.91;10501949;28;20220;-71
2021/12/08 16:14:14;;;;;;;22.50;9.77;;;;;;;-2.97;100.00;100495.50;10501443;28;20295;-67
2021/12/08 16:19:19;;;;;;;20.73;9.20;;;;;;;-3.04;100.00;100507.06;10501766;28;20224;-69
2021/12/08 16:24:24;;;;;;;25.63;10.70;;;;;;;-3.07;100.00;100504.38;10501123;28;20242;-66
2021/12/08 16:29:31;;;;;;;22.20;10.07;;;;;;;-3.15;100.00;100494.66;10501208;28;20667;-70
2021/12/08 16:34:34;;;;;;;24.17;10.37;;;;;;;-3.19;100.00;100496.19;10501165;28;20289;-69
2021/12/08 16:39:56;;;;;;;27.23;11.20;;;;;;;-3.17;100.00;100494.59;10526172;28;20310;-67
2021/12/08 16:44:59;;;;;;;27.47;10.07;;;;;;;-3.18;100.00;100497.94;10542594;28;20316;-68
2021/12/08 16:50:07;;;;;;;21.97;10.60;;;;;;;-3.07;100.00;100499.28;10541914;28;20306;-65
2021/12/08 16:55:14;;;;;;;24.23;10.33;;;;;;;-3.01;100.00;100493.63;10541968;28;20566;-64
2021/12/08 17:00:21;;;;;;;21.73;10.47;;;;;;;-2.85;100.00;100491.00;10541954;28;20302;-68
2021/12/08 17:05:25;;;;;;;25.47;10.97;;;;;;;-2.85;100.00;100494.41;10541556;28;20657;-67
2021/12/08 17:10:30;;;;;;;26.77;11.17;;;;;;;-2.79;100.00;100484.50;10541576;28;20314;-66
2021/12/08 17:15:35;;;;;;;23.50;10.43;;;;;;;-2.79;100.00;100486.16;10541149;28;20216;-67
2021/12/08 17:20:40;;;;;;;32.23;13.73;;;;;;;-2.64;100.00;100475.00;10540938;28;20230;-74
2021/12/08 17:25:47;;;;;;;26.47;11.93;;;;;;;-2.60;100.00;100476.91;10541048;28;20306;-68
2021/12/08 17:30:51;;;;;;;31.13;12.43;;;;;;;-2.60;100.00;100458.25;10540181;28;20235;-69
2021/12/08 17:35:57;;;;;;;26.43;11.33;;;;;;;-2.55;100.00;100450.03;10540021;28;20223;-68
2021/12/08 17:41:03;;;;;;;24.63;10.77;;;;;;;-2.50;100.00;100447.66;10503253;28;20236;-67
2021/12/08 17:46:10;;;;;;;21.33;10.13;;;;;;;-2.42;100.00;100449.72;10498204;28;20522;-67
2021/12/08 17:51:14;;;;;;;25.63;10.00;;;;;;;-2.36;100.00;100455.09;10498260;28;20222;-68
2021/12/08 17:56:19;;;;;;;23.83;9.93;;;;;;;-2.38;100.00;100464.31;10497814;28;20224;-66
2021/12/08 18:01:23;;;;;;;24.27;10.37;;;;;;;-2.33;100.00;100454.34;10498032;28;20216;-66
2021/12/08 18:06:29;;;;;;;25.23;10.10;;;;;;;-2.14;100.00;100445.81;10498220;28;20228;-75
2021/12/08 18:11:34;;;;;;;27.67;11.30;;;;;;;-2.25;100.00;100447.91;10497489;28;20295;-67
2021/12/08 18:16:40;;;;;;;26.93;10.97;;;;;;;-2.19;100.00;100440.53;10496882;28;20295;-66
2021/12/08 18:21:44;;;;;;;25.30;10.07;;;;;;;-2.22;100.00;100424.28;10497407;28;20357;-68
2021/12/08 18:26:49;;;;;;;20.00;9.10;;;;;;;-2.18;100.00;100416.00;10499790;28;20232;-67
2021/12/08 18:31:53;;;;;;;20.57;9.37;;;;;;;-2.15;100.00;100416.09;10501287;28;20220;-68
2021/12/08 18:36:56;;;;;;;22.13;8.50;;;;;;;-2.12;100.00;100406.09;10500283;28;20303;-68
2021/12/08 18:42:05;;;;;;;21.80;9.00;;;;;;;-2.04;100.00;100412.34;10500423;28;20234;-67
2021/12/08 18:47:09;;;;;;;19.47;8.00;;;;;;;-2.09;100.00;100412.16;10503113;28;20672;-67
2021/12/08 18:52:14;;;;;;;19.47;7.97;;;;;;;-2.14;100.00;100408.53;10508311;28;20215;-64
2021/12/08 18:57:34;;;;;;;21.67;8.20;;;;;;;-2.17;100.00;100402.50;10508161;28;20620;-68
2021/12/08 19:02:37;;;;;;;20.93;7.90;;;;;;;-2.15;100.00;100390.69;10507466;28;20665;-66
2021/12/08 19:07:43;;;;;;;16.67;6.33;;;;;;;-2.04;100.00;100381.84;10506937;28;20219;-67
2021/12/08 19:12:48;;;;;;;20.83;8.40;;;;;;;-2.05;100.00;100387.75;10506869;28;20219;-66
2021/12/08 19:17:52;;;;;;;18.50;7.77;;;;;;;-2.08;100.00;100393.56;10507126;28;20594;-68
2021/12/08 19:22:55;;;;;;;21.53;8.17;;;;;;;-1.98;100.00;100385.47;10506932;28;20227;-65
2021/12/08 19:28:00;;;;;;;19.73;8.50;;;;;;;-1.89;100.00;100372.25;10506623;28;20568;-65
2021/12/08 19:33:05;;;;;;;18.90;8.20;;;;;;;-1.97;100.00;100388.91;10506445;28;20295;-65
2021/12/08 19:38:10;;;;;;;20.30;8.23;;;;;;;-1.94;100.00;100391.56;10506566;28;20299;-65
2021/12/08 19:43:15;;;;;;;18.97;8.13;;;;;;;-1.97;100.00;100388.91;10506380;28;20537;-67
2021/12/08 19:48:20;;;;;;;22.00;7.80;;;;;;;-1.83;100.00;100397.94;10506182;28;20242;-66
2021/12/08 19:53:24;;;;;;;18.10;7.27;;;;;;;-1.91;100.00;100392.53;10506049;28;20216;-69
2021/12/08 19:58:28;;;;;;;17.90;8.00;;;;;;;-1.95;100.00;100392.38;10505051;28;20541;-65
2021/12/08 20:03:32;;;;;;;17.43;7.10;;;;;;;-1.92;100.00;100377.22;10505926;28;20232;-67
2021/12/08 20:08:35;;;;;;;19.30;8.03;;;;;;;-1.98;100.00;100372.78;10505441;28;20238;-66
2021/12/08 20:13:40;;;;;;;27.27;9.57;;;;;;;-2.06;100.00;100370.72;10505188;28;20240;-66
2021/12/08 20:18:44;;;;;;;21.13;8.63;;;;;;;-1.97;100.00;100376.19;10501926;28;20220;-67
2021/12/08 20:23:48;;;;;;;21.03;8.20;;;;;;;-1.81;100.00;100376.84;10501525;28;20228;-64
2021/12/08 20:28:54;;;;;;;21.33;8.20;;;;;;;-1.89;100.00;100365.50;10162180;27;10000502;-65
2021/12/08 20:34:02;;;;;;;19.43;7.57;;;;;;;-1.93;100.00;100353.47;10543160;28;20187;-69
2021/12/08 20:39:06;;;;;;;17.57;6.93;;;;;;;-2.01;100.00;100351.44;10542677;28;20214;-69
2021/12/08 20:44:12;;;;;;;16.73;7.03;;;;;;;-2.02;100.00;100363.28;10542489;28;20192;-65
2021/12/08 20:49:15;;;;;;;20.27;7.60;;;;;;;-2.05;100.00;100365.69;10542694;28;20215;-67
2021/12/08 20:54:19;;;;;;;21.00;7.93;;;;;;;-2.00;100.00;100346.41;10542174;28;20517;-67
2021/12/08 20:59:26;;;;;;;19.57;7.20;;;;;;;-2.02;100.00;100337.00;10542066;28;20196;-67
2021/12/08 21:04:34;;;;;;;20.33;7.90;;;;;;;-1.98;100.00;100338.84;10541952;28;20883;-62
2021/12/08 21:09:37;;;;;;;21.03;8.37;;;;;;;-1.83;100.00;100349.63;10540719;28;20552;-66
2021/12/08 21:14:42;;;;;;;15.37;7.47;;;;;;;-1.97;100.00;100353.31;10541615;28;20528;-66
2021/12/08 21:19:45;;;;;;;21.20;8.40;;;;;;;-2.00;100.00;100345.56;10540790;28;20210;-65
2021/12/08 21:24:49;;;;;;;18.23;8.43;;;;;;;-1.98;100.00;100338.84;10540861;28;20226;-66
2021/12/08 21:29:53;;;;;;;23.10;8.67;;;;;;;-1.95;100.00;100344.06;10519411;28;20224;-66
2021/12/08 21:35:00;;;;;;;19.57;8.90;;;;;;;-1.98;100.00;100344.81;10498592;28;20217;-64
2021/12/08 21:40:05;;;;;;;22.77;9.53;;;;;;;-2.03;100.00;100358.13;10498318;28;20812;-67
2021/12/08 21:45:11;;;;;;;20.80;8.43;;;;;;;-1.99;100.00;100363.41;10498371;28;20231;-64
2021/12/08 21:50:16;;;;;;;16.50;8.13;;;;;;;-1.99;100.00;100365.97;10497935;28;20238;-67
2021/12/08 21:55:21;;;;;;;19.70;8.37;;;;;;;-1.98;100.00;100349.88;10498340;28;20294;-65
2021/12/08 22:00:29;;;;;;;20.47;7.87;;;;;;;-1.97;100.00;100346.56;10498147;28;20303;-64
2021/12/08 22:05:34;;;;;;;18.40;7.43;;;;;;;-1.96;100.00;100349.94;10497841;28;20375;-64
2021/12/08 22:10:38;;;;;;;20.03;8.57;;;;;;;-1.96;100.00;100347.41;10497831;28;20259;-63
2021/12/08 22:15:45;;;;;;;22.47;9.20;;;;;;;-2.09;100.00;100345.19;10497790;28;20212;-64
2021/12/08 22:20:50;;;;;;;19.47;8.70;;;;;;;-1.99;100.00;100332.03;10500627;28;20226;-65
2021/12/08 22:25:53;;;;;;;19.30;8.40;;;;;;;-1.93;100.00;100327.19;10500171;28;20236;-66
2021/12/08 22:30:58;;;;;;;21.30;8.83;;;;;;;-1.96;100.00;100327.06;10500289;28;20238;-66
2021/12/08 22:36:15;;;;;;;21.00;9.00;;;;;;;-1.97;100.00;100317.72;10500279;28;20277;-63
2021/12/08 22:41:19;;;;;;;22.17;9.87;;;;;;;-2.07;100.00;100318.16;10500361;28;20666;-66
2021/12/08 22:46:24;;;;;;;20.60;9.80;;;;;;;-2.08;100.00;100296.09;10500315;28;20306;-66
2021/12/08 22:51:30;;;;;;;18.50;7.73;;;;;;;-1.94;100.00;100298.34;10499795;28;20224;-63
2021/12/08 22:56:34;;;;;;;22.90;9.13;;;;;;;-1.99;100.00;100296.44;10499657;28;20220;-68
2021/12/08 23:01:39;;;;;;;110.00;51.97;;;;;;;-1.91;100.00;100288.28;10499766;28;20212;-66
2021/12/08 23:06:42;;;;;;;19.20;7.90;;;;;;;-1.91;100.00;100302.69;10499611;28;20307;-67
2021/12/08 23:11:47;;;;;;;21.57;8.67;;;;;;;-1.99;100.00;100299.88;10499500;28;20665;-65
2021/12/08 23:16:53;;;;;;;17.90;8.40;;;;;;;-1.84;100.00;100274.13;10499316;28;20216;-67
2021/12/08 23:21:56;;;;;;;19.57;9.33;;;;;;;-1.90;100.00;100287.50;10499512;28;20212;-67
2021/12/08 23:26:59;;;;;;;21.50;8.90;;;;;;;-1.92;100.00;100295.88;10499278;28;20232;-66
2021/12/08 23:32:06;;;;;;;19.07;8.80;;;;;;;-1.88;100.00;100285.03;10500724;28;20314;-68